Time;durP1;ratioP1;P1;durP2;ratioP2;P2;SDS_P1;SDS_P2;PMS_P1;PMS_P2;Temp;Humidity;BMP_temperature;BMP_pressure;BME280_temperature;BME280_humidity;BME280_pressure;Samples;Min_cycle;Max_cycle;Signal;HPM_P1;HPM_P2
2022/04/07 00:00:23;;;;;;;7.50;5.33;;;;;;;4.11;54.20;98386.25;5079280;28;20038;-70
2022/04/07 00:02:49;;;;;;;9.67;5.17;;;;;;;4.19;54.21;98389.78;5060788;28;20397;-71
2022/04/07 00:05:14;;;;;;;8.93;5.33;;;;;;;4.16;54.13;98402.41;5072895;28;20552;-70
2022/04/07 00:07:40;;;;;;;7.80;5.13;;;;;;;4.33;54.09;98391.06;5055226;28;20419;-70
2022/04/07 00:10:06;;;;;;;8.03;4.80;;;;;;;4.30;54.08;98397.47;5097919;28;20858;-70
2022/04/07 00:12:37;;;;;;;9.10;4.70;;;;;;;4.31;53.77;98388.59;5070937;28;20750;-71
2022/04/07 00:15:03;;;;;;;5.75;4.22;;;;;;;4.38;53.77;98388.84;5073045;28;20057;-73
2022/04/07 00:17:29;;;;;;;7.40;4.40;;;;;;;4.49;53.89;98391.25;5049768;28;20421;-72
2022/04/07 00:19:55;;;;;;;6.50;4.30;;;;;;;4.45;53.39;98390.72;5088594;28;20048;-73
2022/04/07 00:22:21;;;;;;;8.13;4.17;;;;;;;4.54;53.13;98387.19;5071502;28;20039;-73
2022/04/07 00:24:47;;;;;;;7.23;4.20;;;;;;;4.52;52.99;98402.25;5073716;28;20071;-76
2022/04/07 00:27:13;;;;;;;8.97;3.83;;;;;;;4.45;53.41;98389.88;5074131;28;20641;-72
2022/04/07 00:29:38;;;;;;;6.63;4.40;;;;;;;4.46;53.36;98404.69;5073432;28;20150;-71
2022/04/07 00:32:06;;;;;;;7.93;4.33;;;;;;;4.58;53.13;98399.03;5056782;28;20138;-71
2022/04/07 00:34:32;;;;;;;10.10;4.23;;;;;;;4.62;53.12;98387.25;5073254;28;20500;-72
2022/04/07 00:36:58;;;;;;;7.43;4.33;;;;;;;4.53;53.37;98392.59;5057735;28;20039;-71
2022/04/07 00:39:24;;;;;;;5.83;3.93;;;;;;;4.52;53.49;98394.38;5111714;28;20444;-72
2022/04/07 00:41:50;;;;;;;8.47;4.03;;;;;;;4.61;53.19;98390.03;5077850;28;20050;-72
2022/04/07 00:44:16;;;;;;;6.70;4.10;;;;;;;4.68;53.18;98378.75;5078356;28;20575;-72
2022/04/07 00:46:42;;;;;;;10.93;4.00;;;;;;;4.65;52.95;98381.69;5061672;28;20035;-73
2022/04/07 00:49:09;;;;;;;4.33;3.63;;;;;;;4.80;52.69;98380.16;5077925;28;20066;-73
2022/04/07 00:51:38;;;;;;;7.67;4.07;;;;;;;4.77;53.11;98382.28;5077881;28;20070;-72
2022/04/07 00:54:04;;;;;;;5.67;3.40;;;;;;;4.62;52.99;98383.78;5077582;28;20058;-72
2022/04/07 00:56:30;;;;;;;6.70;3.20;;;;;;;4.82;52.84;98383.47;5094247;28;20564;-73
2022/04/07 00:58:57;;;;;;;6.60;3.57;;;;;;;4.64;53.05;98395.00;5094672;28;20132;-72
2022/04/07 01:01:23;;;;;;;4.30;3.33;;;;;;;4.61;52.96;98384.78;5095471;28;20054;-73
2022/04/07 01:03:52;;;;;;;6.10;3.77;;;;;;;4.86;52.96;98378.72;5111675;28;20460;-71
2022/04/07 01:06:19;;;;;;;5.00;3.23;;;;;;;4.77;52.75;98383.09;5077508;28;20039;-76
2022/04/07 01:08:45;;;;;;;5.77;3.40;;;;;;;4.73;52.47;98389.66;5077612;28;20075;-74
2022/04/07 01:11:10;;;;;;;7.50;3.30;;;;;;;4.68;52.78;98373.50;5060598;28;20086;-75
2022/04/07 01:13:47;;;;;;;5.60;4.10;;;;;;;5.07;52.20;98384.50;5060646;28;20473;-73
2022/04/07 01:16:13;;;;;;;6.03;3.77;;;;;;;4.72;52.52;98379.28;5094234;28;20114;-73
2022/04/07 01:18:42;;;;;;;5.53;3.53;;;;;;;4.78;52.47;98381.31;5078068;28;20112;-73
2022/04/07 01:21:10;;;;;;;5.70;3.93;;;;;;;4.71;52.50;98353.94;5077951;28;20039;-74
2022/04/07 01:23:38;;;;;;;6.47;3.80;;;;;;;4.94;52.87;98378.78;5079042;28;20050;-73
2022/04/07 01:26:08;;;;;;;6.67;3.87;;;;;;;4.93;52.65;98392.94;5060770;28;20140;-72
2022/04/07 01:28:35;;;;;;;7.77;4.07;;;;;;;4.83;52.85;98379.03;5094355;28;20055;-73
2022/04/07 01:31:03;;;;;;;5.50;4.00;;;;;;;4.74;52.58;98372.88;5110825;28;20376;-73
2022/04/07 01:33:29;;;;;;;8.50;4.17;;;;;;;4.73;52.60;98350.22;5094001;28;20784;-73
2022/04/07 01:35:55;;;;;;;7.57;4.60;;;;;;;4.76;52.59;98378.00;5061039;28;20435;-73
2022/04/07 01:38:20;;;;;;;8.67;4.67;;;;;;;4.78;52.72;98376.06;5077236;28;20047;-73
2022/04/07 01:40:47;;;;;;;8.37;4.27;;;;;;;4.89;52.90;98378.41;5077656;28;20043;-73
2022/04/07 01:43:14;;;;;;;10.67;4.60;;;;;;;4.81;53.16;98397.59;5094503;28;20130;-73
2022/04/07 01:45:40;;;;;;;8.60;4.87;;;;;;;4.78;52.92;98371.59;5077142;28;20458;-73
2022/04/07 01:48:07;;;;;;;7.43;4.50;;;;;;;4.92;52.82;98378.13;5093646;28;20051;-74
2022/04/07 01:50:33;;;;;;;5.40;4.53;;;;;;;4.75;52.86;98371.09;5076449;28;20044;-71
2022/04/07 01:52:59;;;;;;;8.17;4.73;;;;;;;4.79;52.90;98364.53;5060065;28;20191;-75
2022/04/07 01:55:26;;;;;;;11.03;5.30;;;;;;;4.94;52.77;98384.06;5093996;28;20081;-76
2022/04/07 01:57:52;;;;;;;8.00;4.87;;;;;;;4.89;52.71;98365.25;5093981;28;20047;-73
2022/04/07 02:00:17;;;;;;;7.87;5.03;;;;;;;4.76;52.94;98343.81;5077380;28;20047;-77
2022/04/07 02:02:45;;;;;;;7.03;5.00;;;;;;;4.86;53.04;98360.31;5060192;28;20039;-72
2022/04/07 02:05:11;;;;;;;11.97;5.60;;;;;;;4.91;52.78;98373.84;5093593;28;20054;-73
2022/04/07 02:07:41;;;;;;;9.77;5.27;;;;;;;4.96;52.61;98340.84;5076231;28;20051;-72
2022/04/07 02:10:08;;;;;;;10.37;5.53;;;;;;;5.16;52.58;98371.25;5059439;28;20067;-72
2022/04/07 02:12:36;;;;;;;9.27;5.47;;;;;;;5.23;52.15;98360.88;5092948;28;20126;-73
2022/04/07 02:15:02;;;;;;;8.47;5.70;;;;;;;5.01;52.21;98358.78;5059552;28;20566;-73
2022/04/07 02:17:29;;;;;;;9.27;6.00;;;;;;;5.21;52.12;98358.41;5093404;28;20527;-72
2022/04/07 02:19:58;;;;;;;9.93;5.53;;;;;;;5.18;52.25;98361.34;5059972;28;20420;-72
2022/04/07 02:22:24;;;;;;;8.43;5.33;;;;;;;5.09;52.14;98354.41;5092778;28;20047;-72
2022/04/07 02:24:50;;;;;;;7.67;5.23;;;;;;;5.10;52.28;98357.88;5109585;28;20048;-72
2022/04/07 02:27:16;;;;;;;8.03;5.23;;;;;;;5.20;52.34;98359.41;5075920;28;20051;-72
2022/04/07 02:29:42;;;;;;;7.87;5.27;;;;;;;5.20;52.54;98358.56;5109777;28;20031;-72
2022/04/07 02:32:09;;;;;;;13.00;5.60;;;;;;;5.22;52.20;98364.50;5110693;28;20124;-72
2022/04/07 02:34:36;;;;;;;10.67;5.40;;;;;;;5.26;52.43;98365.03;5126364;27;20044;-71
2022/04/07 02:37:01;;;;;;;11.67;5.67;;;;;;;5.01;52.58;98341.19;5109195;28;20078;-71
2022/04/07 02:39:27;;;;;;;8.47;5.30;;;;;;;5.11;52.73;98372.66;5109132;28;20047;-72
2022/04/07 02:41:53;;;;;;;10.60;6.13;;;;;;;5.11;52.78;98380.56;5075171;28;20048;-71
2022/04/07 02:44:20;;;;;;;9.10;5.20;;;;;;;5.29;52.56;98373.44;5058615;28;20552;-72
2022/04/07 02:46:45;;;;;;;10.13;5.67;;;;;;;5.26;52.43;98363.22;5092499;28;20044;-71
2022/04/07 02:49:11;;;;;;;12.37;6.03;;;;;;;5.40;52.32;98372.38;5091915;28;20421;-72
2022/04/07 02:51:37;;;;;;;10.20;5.60;;;;;;;5.23;52.63;98359.09;5058666;28;20051;-70
2022/04/07 02:54:03;;;;;;;11.03;5.60;;;;;;;5.21;52.68;98357.63;5075574;28;20047;-72
2022/04/07 02:56:29;;;;;;;12.37;5.70;;;;;;;5.22;52.91;98372.41;5075358;28;20098;-70
2022/04/07 02:58:56;;;;;;;10.23;5.50;;;;;;;5.33;52.71;98380.06;5058217;28;20054;-72
2022/04/07 03:01:21;;;;;;;9.90;5.47;;;;;;;5.22;53.00;98386.41;5074198;28;20048;-71
2022/04/07 03:03:49;;;;;;;9.13;5.50;;;;;;;5.35;53.06;98398.31;5074811;28;20561;-75
2022/04/07 03:06:15;;;;;;;9.97;5.40;;;;;;;5.32;52.73;98380.19;5058527;28;20070;-74
2022/04/07 03:08:41;;;;;;;10.23;6.07;;;;;;;5.42;52.79;98376.47;5108889;28;20048;-74
2022/04/07 03:11:08;;;;;;;8.57;5.27;;;;;;;5.41;52.71;98382.72;5074976;28;20825;-74
2022/04/07 03:13:36;;;;;;;9.50;5.70;;;;;;;5.63;52.37;98373.47;5058683;28;20043;-70
2022/04/07 03:16:03;;;;;;;9.13;5.80;;;;;;;5.76;52.02;98374.66;5058695;28;20449;-73
2022/04/07 03:18:29;;;;;;;12.07;5.77;;;;;;;5.69;51.80;98381.53;5092214;28;20049;-72
2022/04/07 03:20:55;;;;;;;9.67;5.37;;;;;;;5.72;51.80;98383.06;5073143;28;20039;-72
2022/04/07 03:23:20;;;;;;;7.63;5.27;;;;;;;5.52;52.07;98381.63;5056552;28;20092;-71
2022/04/07 03:25:46;;;;;;;10.83;5.73;;;;;;;5.55;52.50;98371.59;5089335;28;20059;-71
2022/04/07 03:28:12;;;;;;;13.97;5.60;;;;;;;5.82;52.18;98381.97;5072555;28;20038;-72
2022/04/07 03:30:39;;;;;;;9.67;5.30;;;;;;;5.87;51.79;98371.78;5106688;28;20398;-71
2022/04/07 03:33:06;;;;;;;8.37;5.20;;;;;;;5.85;51.76;98373.75;5056251;28;20040;-73
2022/04/07 03:35:32;;;;;;;10.13;5.50;;;;;;;5.80;51.83;98354.91;5072296;28;20062;-74
2022/04/07 03:37:58;;;;;;;10.50;5.43;;;;;;;5.92;51.81;98372.13;5089999;28;20066;-72
2022/04/07 03:40:25;;;;;;;10.00;5.67;;;;;;;5.83;51.71;98380.13;5057751;28;20524;-72
2022/04/07 03:42:51;;;;;;;11.37;5.60;;;;;;;6.03;51.57;98381.53;5074595;28;20043;-72
2022/04/07 03:45:18;;;;;;;8.83;5.70;;;;;;;6.02;51.37;98386.00;5074165;28;20119;-75
2022/04/07 03:47:43;;;;;;;8.67;4.90;;;;;;;5.98;51.40;98381.22;5057837;28;20089;-72
2022/04/07 03:50:12;;;;;;;10.43;5.30;;;;;;;5.95;51.30;98377.06;5088011;28;20447;-71
2022/04/07 03:52:40;;;;;;;7.57;5.25;;;;;;;5.95;51.67;98366.53;5071769;28;20036;-72
2022/04/07 03:55:06;;;;;;;9.83;5.30;;;;;;;6.10;51.42;98374.66;5054311;28;20047;-71
2022/04/07 03:57:31;;;;;;;8.63;5.30;;;;;;;5.96;51.48;98367.34;5054215;28;20054;-71
2022/04/07 03:59:57;;;;;;;8.50;5.40;;;;;;;6.13;51.26;98379.59;5071152;28;20043;-71
2022/04/07 04:09:48;;;;;;;11.27;5.70;;;;;;;6.39;50.91;98373.25;5092121;28;20050;-72
2022/04/07 04:12:16;;;;;;;8.83;5.27;;;;;;;6.40;50.26;98379.31;5092798;28;20043;-71
2022/04/07 04:14:44;;;;;;;7.22;5.07;;;;;;;6.32;50.56;98371.41;5078982;28;20035;-67
2022/04/07 04:17:09;;;;;;;10.17;5.10;;;;;;;6.29;50.68;98364.63;5112715;28;20046;-70
2022/04/07 04:19:35;;;;;;;10.37;5.70;;;;;;;6.49;50.69;98368.63;5078853;28;20047;-70
2022/04/07 04:22:01;;;;;;;10.53;5.43;;;;;;;6.40;50.64;98331.84;5078176;28;20465;-69
2022/04/07 04:24:27;;;;;;;11.40;6.03;;;;;;;6.72;49.97;98374.91;5061512;28;20043;-71
2022/04/07 04:26:52;;;;;;;8.77;5.53;;;;;;;6.81;49.96;98354.66;5078649;28;20096;-70
2022/04/07 04:29:21;;;;;;;7.50;4.73;;;;;;;6.86;49.15;98371.63;5079266;28;20515;-72
2022/04/07 04:31:47;;;;;;;7.50;4.63;;;;;;;6.92;49.27;98358.75;5063091;28;20068;-71
2022/04/07 04:34:13;;;;;;;7.43;4.57;;;;;;;6.85;48.76;98362.06;5061699;28;20504;-75
2022/04/07 04:36:42;;;;;;;8.20;4.73;;;;;;;7.04;48.86;98358.25;5059357;28;20036;-75
2022/04/07 04:39:08;;;;;;;6.77;4.50;;;;;;;6.92;49.03;98364.03;5055781;28;20155;-70
2022/04/07 04:41:34;;;;;;;8.23;4.33;;;;;;;6.91;48.82;98379.03;5040737;28;20135;-72
2022/04/07 04:44:00;;;;;;;6.10;4.00;;;;;;;6.85;48.81;98369.13;5056462;28;20134;-72
2022/04/07 04:46:27;;;;;;;8.47;4.60;;;;;;;6.92;48.98;98359.56;5057102;28;20069;-72
2022/04/07 04:48:53;;;;;;;8.97;4.60;;;;;;;6.79;48.95;98375.91;5056889;28;20055;-71
2022/04/07 04:51:19;;;;;;;7.17;4.07;;;;;;;7.01;48.63;98371.78;5057333;28;20055;-75
2022/04/07 04:53:45;;;;;;;5.60;3.80;;;;;;;6.64;48.79;98372.25;5074111;28;20036;-71
2022/04/07 04:56:11;;;;;;;6.40;4.20;;;;;;;6.67;48.98;98382.47;5056591;28;20066;-70
2022/04/07 04:58:37;;;;;;;7.47;4.10;;;;;;;6.73;48.95;98375.75;5040630;28;20524;-68
2022/04/07 05:01:03;;;;;;;6.63;4.00;;;;;;;6.81;48.92;98376.56;5057264;28;20078;-69
2022/04/07 05:03:29;;;;;;;5.83;3.80;;;;;;;6.93;49.15;98370.94;5092048;28;20043;-70
2022/04/07 05:05:55;;;;;;;7.20;4.37;;;;;;;7.00;48.87;98375.41;5057100;28;20097;-71
2022/04/07 05:08:20;;;;;;;12.17;4.03;;;;;;;6.98;49.10;98381.84;5056916;28;20044;-73
2022/04/07 05:10:46;;;;;;;6.23;4.10;;;;;;;6.90;49.38;98362.38;5056816;28;20134;-70
2022/04/07 05:13:12;;;;;;;5.97;3.93;;;;;;;6.92;49.65;98370.13;5055661;28;20048;-72
2022/04/07 05:15:39;;;;;;;7.40;4.60;;;;;;;7.05;50.00;98348.50;5039180;28;20513;-72
2022/04/07 05:18:06;;;;;;;6.77;4.27;;;;;;;6.82;50.60;98354.47;5041148;28;20051;-75
2022/04/07 05:20:32;;;;;;;8.83;4.50;;;;;;;6.71;50.69;98341.63;5056593;28;20123;-72
2022/04/07 05:22:57;;;;;;;5.87;4.63;;;;;;;6.99;50.81;98362.38;5056899;28;20036;-71
2022/04/07 05:25:23;;;;;;;8.00;4.43;;;;;;;6.85;51.13;98338.31;5088667;28;20544;-78
2022/04/07 05:27:49;;;;;;;7.10;4.93;;;;;;;7.16;50.83;98362.19;5041197;28;20040;-75
2022/04/07 05:30:18;;;;;;;6.17;4.50;;;;;;;7.28;50.91;98352.09;5062919;28;20044;-78
2022/04/07 05:32:44;;;;;;;6.77;4.67;;;;;;;7.34;50.64;98368.09;5073708;28;20047;-75
2022/04/07 05:35:15;;;;;;;11.30;5.00;;;;;;;7.65;50.63;98357.59;5072757;28;20180;-78
2022/04/07 05:37:41;;;;;;;8.48;5.03;;;;;;;7.31;50.48;98357.03;5057111;28;20067;-74
2022/04/07 05:40:12;;;;;;;8.90;4.60;;;;;;;7.29;50.89;98336.06;5093065;28;20174;-78
2022/04/07 05:42:37;;;;;;;12.63;5.00;;;;;;;7.50;50.55;98333.72;5074195;28;20036;-76
2022/04/07 05:45:04;;;;;;;10.67;5.23;;;;;;;7.60;50.39;98333.50;5073281;28;20494;-74
2022/04/07 05:47:30;;;;;;;7.83;5.33;;;;;;;7.69;50.18;98333.31;5074575;28;20048;-76
2022/04/07 05:49:56;;;;;;;8.40;5.20;;;;;;;7.90;50.01;98340.66;5074582;28;20039;-80
2022/04/07 05:52:24;;;;;;;9.87;5.67;;;;;;;7.64;49.68;98337.47;5091450;28;20076;-77
2022/04/07 05:54:50;;;;;;;11.33;6.40;;;;;;;7.46;50.11;98321.00;5057115;28;20044;-78
2022/04/07 05:57:16;;;;;;;12.27;6.77;;;;;;;7.18;50.60;98320.59;5057215;28;20094;-76
2022/04/07 05:59:41;;;;;;;14.23;7.23;;;;;;;7.09;51.47;98303.13;5057641;28;20135;-75
2022/04/07 06:02:07;;;;;;;12.87;6.80;;;;;;;6.77;51.97;98317.19;5056789;28;20142;-75
2022/04/07 06:04:39;;;;;;;12.80;7.23;;;;;;;7.03;52.12;98313.56;5057893;28;20044;-74
2022/04/07 06:07:04;;;;;;;11.93;7.67;;;;;;;7.06;52.08;98314.00;5056010;28;20051;-76
2022/04/07 06:09:30;;;;;;;16.73;8.53;;;;;;;6.88;52.52;98302.84;5056456;28;20040;-73
2022/04/07 06:11:56;;;;;;;20.37;9.10;;;;;;;6.93;52.95;98297.06;5055792;28;20507;-75
2022/04/07 06:14:22;;;;;;;16.30;9.07;;;;;;;6.78;53.74;98284.53;5039905;28;20134;-77
2022/04/07 06:16:48;;;;;;;20.53;9.73;;;;;;;6.62;54.06;98296.94;5041574;28;20043;-76
2022/04/07 06:19:15;;;;;;;18.80;9.43;;;;;;;6.56;54.50;98290.50;5089882;28;20044;-75
2022/04/07 06:21:43;;;;;;;18.43;10.40;;;;;;;6.48;55.22;98279.97;5072960;28;20425;-76
2022/04/07 06:24:10;;;;;;;14.87;9.03;;;;;;;6.34;54.90;98293.81;5072359;28;20479;-77
2022/04/07 06:26:35;;;;;;;17.20;9.63;;;;;;;6.38;55.21;98283.75;5048268;28;20110;-77
2022/04/07 06:29:01;;;;;;;14.03;8.83;;;;;;;6.43;55.06;98284.91;5085267;28;20040;-78
2022/04/07 06:31:27;;;;;;;15.50;9.20;;;;;;;6.72;54.84;98269.38;5059190;28;20501;-78
2022/04/07 06:33:53;;;;;;;14.50;8.40;;;;;;;6.72;54.40;98273.81;5075008;28;20035;-78
2022/04/07 06:36:19;;;;;;;11.60;7.13;;;;;;;6.47;55.04;98256.41;5057335;28;20140;-79
2022/04/07 06:38:44;;;;;;;11.17;7.30;;;;;;;6.53;54.85;98267.09;5057017;28;20040;-78
2022/04/07 06:41:10;;;;;;;8.60;5.33;;;;;;;6.42;54.71;98264.81;5091158;28;20056;-77
2022/04/07 06:43:36;;;;;;;10.23;5.80;;;;;;;6.80;54.57;98265.91;5039663;28;20071;-76
2022/04/07 06:46:02;;;;;;;11.43;5.17;;;;;;;6.58;54.59;98248.16;5055144;28;20408;-76
2022/04/07 06:48:27;;;;;;;9.90;5.87;;;;;;;6.52;54.59;98261.97;5055586;28;20056;-80
2022/04/07 06:50:54;;;;;;;11.87;5.93;;;;;;;6.85;54.43;98269.69;5088658;28;20052;-77
2022/04/07 06:53:20;;;;;;;10.83;5.90;;;;;;;7.01;54.18;98265.38;5055190;28;20047;-78
2022/04/07 06:55:46;;;;;;;10.07;5.83;;;;;;;7.25;53.89;98270.56;5036766;28;20032;-78
2022/04/07 06:58:12;;;;;;;8.87;5.60;;;;;;;7.32;53.17;98271.56;5053146;28;20565;-77
2022/04/07 07:00:45;;;;;;;9.03;4.80;;;;;;;7.39;53.05;98257.50;5053007;28;20043;-78
2022/04/07 07:03:13;;;;;;;7.63;5.07;;;;;;;7.43;52.96;98268.50;5089107;28;20131;-79
2022/04/07 07:05:40;;;;;;;7.77;5.10;;;;;;;7.46;53.11;98266.38;5072689;28;20387;-77
2022/04/07 07:08:16;;;;;;;11.30;5.87;;;;;;;7.61;53.16;98256.72;5072000;28;20131;-80
2022/04/07 07:10:45;;;;;;;7.87;5.07;;;;;;;7.26;52.53;98288.88;5089965;28;20409;-79
2022/04/07 07:13:12;;;;;;;8.03;4.67;;;;;;;7.37;52.72;98261.28;5089450;28;20052;-79
2022/04/07 07:15:39;;;;;;;7.57;4.83;;;;;;;7.20;53.44;98257.06;5072021;28;20043;-77
2022/04/07 07:18:05;;;;;;;9.50;5.20;;;;;;;7.44;53.31;98259.63;5072088;28;20127;-77
2022/04/07 07:20:31;;;;;;;6.63;5.10;;;;;;;7.38;52.55;98261.09;5056876;28;20064;-77
2022/04/07 07:22:56;;;;;;;12.93;5.83;;;;;;;7.42;53.06;98251.03;5056882;28;20555;-77
2022/04/07 07:25:23;;;;;;;11.67;6.13;;;;;;;7.49;52.88;98244.09;5056165;28;20087;-77
2022/04/07 07:27:49;;;;;;;8.77;5.73;;;;;;;7.84;52.83;98256.78;5040137;28;20122;-77
2022/04/07 07:30:16;;;;;;;10.03;5.90;;;;;;;7.94;52.28;98246.78;5056615;28;20500;-77
2022/04/07 07:32:44;;;;;;;15.43;6.37;;;;;;;8.01;52.26;98245.09;5072173;28;20052;-77
2022/04/07 07:35:10;;;;;;;9.20;5.13;;;;;;;7.63;52.28;98244.16;5088011;28;20479;-77
2022/04/07 07:37:37;;;;;;;10.57;5.40;;;;;;;7.77;52.52;98230.22;5054782;28;20089;-77
2022/04/07 07:40:07;;;;;;;8.97;5.80;;;;;;;7.64;52.95;98237.88;5055347;28;20570;-77
2022/04/07 07:42:33;;;;;;;11.30;6.32;;;;;;;7.55;52.81;98246.03;5072154;28;20047;-77
2022/04/07 07:44:59;;;;;;;6.83;5.53;;;;;;;7.76;53.16;98233.03;5072403;28;20040;-77
2022/04/07 07:47:25;;;;;;;11.90;6.87;;;;;;;7.85;52.62;98226.69;5056674;28;20082;-78
2022/04/07 07:49:51;;;;;;;11.33;6.23;;;;;;;8.04;51.62;98231.53;5077119;28;20130;-77
2022/04/07 07:52:16;;;;;;;9.27;5.80;;;;;;;8.11;51.23;98221.88;5042484;28;20040;-78
2022/04/07 07:54:42;;;;;;;8.07;5.07;;;;;;;7.82;52.07;98221.75;5042880;28;20085;-79
2022/04/07 07:57:08;;;;;;;12.00;6.33;;;;;;;8.03;52.02;98229.88;5075617;28;20477;-78
2022/04/07 07:59:33;;;;;;;9.20;5.50;;;;;;;7.90;51.75;98229.66;5042942;28;20044;-77
2022/04/07 08:01:59;;;;;;;9.30;5.30;;;;;;;7.85;51.94;98234.63;5059114;28;20093;-78
2022/04/07 08:04:25;;;;;;;11.17;5.40;;;;;;;7.56;52.43;98230.00;5076548;28;20048;-78
2022/04/07 08:06:50;;;;;;;9.67;5.30;;;;;;;7.57;52.51;98228.16;5061223;28;20036;-78
2022/04/07 08:09:16;;;;;;;8.10;5.63;;;;;;;7.64;52.81;98229.16;5063150;28;20039;-77
2022/04/07 08:11:42;;;;;;;14.53;7.30;;;;;;;7.85;52.78;98216.13;5078178;28;20096;-77
2022/04/07 08:14:08;;;;;;;11.27;6.47;;;;;;;8.00;52.71;98183.47;5061973;28;20047;-77
2022/04/07 08:16:35;;;;;;;11.73;6.20;;;;;;;8.21;52.02;98202.13;5078308;28;20043;-76
2022/04/07 08:19:01;;;;;;;9.60;6.10;;;;;;;8.19;51.84;98203.31;5078569;28;20039;-78
2022/04/07 08:21:27;;;;;;;13.10;7.17;;;;;;;8.22;51.69;98219.69;5079029;28;20164;-77
2022/04/07 08:23:53;;;;;;;19.40;8.57;;;;;;;8.04;52.30;98190.03;5080338;28;20366;-77
2022/04/07 08:26:19;;;;;;;18.37;8.53;;;;;;;8.12;52.79;98179.41;5063565;28;20066;-78
2022/04/07 08:28:47;;;;;;;14.37;6.67;;;;;;;8.20;51.95;98200.50;5094673;28;20477;-78
2022/04/07 08:31:16;;;;;;;13.95;6.78;;;;;;;8.19;51.83;98198.03;5095733;28;20050;-78
2022/04/07 08:33:42;;;;;;;12.80;7.17;;;;;;;8.33;52.55;98184.06;5061936;28;20043;-77
2022/04/07 08:36:08;;;;;;;11.87;7.10;;;;;;;8.46;52.01;98186.91;5094955;28;20116;-79
2022/04/07 08:38:36;;;;;;;10.53;6.40;;;;;;;8.26;52.01;98199.81;5061390;28;20090;-77
2022/04/07 08:41:02;;;;;;;12.47;6.43;;;;;;;8.12;52.58;98170.63;5095311;28;20067;-78
2022/04/07 08:43:27;;;;;;;11.80;6.83;;;;;;;8.19;52.45;98174.22;5063217;28;20136;-78
2022/04/07 08:45:53;;;;;;;10.83;6.23;;;;;;;7.97;52.78;98183.81;5062012;28;20172;-78
2022/04/07 08:48:20;;;;;;;15.20;7.60;;;;;;;8.28;53.20;98181.94;5079650;28;20059;-77
2022/04/07 08:50:46;;;;;;;11.47;6.87;;;;;;;8.33;52.90;98184.84;5096416;28;20039;-78
2022/04/07 08:53:13;;;;;;;14.80;8.50;;;;;;;8.57;52.52;98179.34;5062853;28;20043;-78
2022/04/07 08:55:39;;;;;;;19.83;9.20;;;;;;;8.67;52.49;98147.34;5061975;28;20060;-77
2022/04/07 08:58:05;;;;;;;15.03;8.00;;;;;;;8.80;51.57;98181.91;5077250;28;20039;-75
2022/04/07 09:00:32;;;;;;;16.17;7.93;;;;;;;8.68;51.68;98170.16;5095829;28;20053;-76
2022/04/07 09:02:58;;;;;;;15.57;7.70;;;;;;;8.69;51.86;98161.19;5097134;28;20065;-75
2022/04/07 09:05:26;;;;;;;13.67;7.17;;;;;;;8.91;51.64;98149.69;5095457;28;20531;-73
2022/04/07 09:07:53;;;;;;;10.80;6.30;;;;;;;9.07;50.90;98168.03;5112063;28;20513;-73
2022/04/07 09:10:20;;;;;;;11.83;7.20;;;;;;;9.34;51.49;98166.53;5094226;28;20035;-72
2022/04/07 09:12:46;;;;;;;10.60;5.93;;;;;;;9.22;50.49;98160.91;5076904;28;20138;-73
2022/04/07 09:15:13;;;;;;;11.00;6.30;;;;;;;9.11;50.90;98158.72;5094131;28;20134;-73
2022/04/07 09:17:50;;;;;;;12.33;6.40;;;;;;;9.22;50.56;98160.06;5111520;28;20040;-70
2022/04/07 09:20:16;;;;;;;11.77;6.80;;;;;;;9.15;50.94;98145.94;5112371;28;20142;-71
2022/04/07 09:22:41;;;;;;;11.33;6.80;;;;;;;8.95;50.92;98129.78;5077396;28;20134;-70
2022/04/07 09:25:08;;;;;;;11.13;6.80;;;;;;;9.10;50.76;98146.47;5093573;28;20065;-72
2022/04/07 09:27:33;;;;;;;10.20;6.63;;;;;;;9.15;50.95;98133.50;5094216;28;20117;-73
2022/04/07 09:30:00;;;;;;;12.30;7.00;;;;;;;9.36;50.87;98153.94;5060472;28;20046;-72
2022/04/07 09:32:26;;;;;;;12.77;7.00;;;;;;;9.42;50.32;98153.19;5111342;28;20040;-74
2022/04/07 09:34:57;;;;;;;11.30;6.17;;;;;;;9.31;50.52;98153.66;5111742;28;20051;-72
2022/04/07 09:37:25;;;;;;;14.05;6.55;;;;;;;9.26;50.57;98125.06;5112681;28;20054;-73
2022/04/07 09:40:12;;;;;;;15.03;7.10;;;;;;;9.60;50.25;98143.81;5116594;28;20122;-75
2022/04/07 09:42:41;;;;;;;12.67;7.17;;;;;;;9.28;50.74;98131.03;5111033;28;20043;-75
2022/04/07 09:45:11;;;;;;;13.33;6.97;;;;;;;9.40;50.56;98128.69;5077199;28;20081;-72
2022/04/07 09:47:44;;;;;;;11.27;7.10;;;;;;;9.59;50.18;98128.94;5077582;28;20111;-71
2022/04/07 09:50:21;;;;;;;13.37;6.43;;;;;;;9.88;49.65;98134.09;5059523;28;20071;-71
2022/04/07 09:52:57;;;;;;;11.30;6.97;;;;;;;10.17;49.38;98130.50;5076284;28;20120;-71
2022/04/07 09:55:26;;;;;;;11.03;6.80;;;;;;;10.11;48.95;98140.06;5111179;28;20075;-70
2022/04/07 09:57:53;;;;;;;11.50;6.70;;;;;;;10.02;49.14;98133.19;5092997;28;20049;-72
2022/04/07 10:00:19;;;;;;;10.93;6.53;;;;;;;9.67;49.70;98115.53;5092528;28;20039;-74
2022/04/07 10:02:45;;;;;;;11.53;6.97;;;;;;;9.76;49.28;98090.53;5076174;28;20397;-71
2022/04/07 10:05:11;;;;;;;9.85;6.63;;;;;;;10.13;49.20;98134.56;5059158;28;20229;-71
2022/04/07 10:07:38;;;;;;;11.63;7.03;;;;;;;10.00;49.55;98110.53;5075893;28;20043;-73
2022/04/07 10:10:04;;;;;;;13.70;7.68;;;;;;;10.20;49.61;98124.81;5092442;28;20504;-69
2022/04/07 10:12:33;;;;;;;13.40;8.30;;;;;;;10.21;49.99;98100.72;5075986;28;20039;-74
2022/04/07 10:14:59;;;;;;;15.43;8.20;;;;;;;10.19;49.74;98102.75;5075786;28;20044;-70
2022/04/07 10:17:24;;;;;;;13.13;8.07;;;;;;;10.05;49.58;98074.47;5058875;28;20112;-71
2022/04/07 10:19:56;;;;;;;16.13;8.75;;;;;;;10.32;49.48;98096.72;5059185;28;20039;-72
2022/04/07 10:23:08;;;;;;;14.90;8.50;;;;;;;10.43;49.47;98100.66;5075763;28;20047;-71
2022/04/07 10:25:38;;;;;;;18.42;10.40;;;;;;;10.40;49.85;98090.44;5048744;28;20097;-71
2022/04/07 10:28:04;;;;;;;15.90;9.45;;;;;;;10.47;49.50;98096.63;5092513;28;20073;-69
2022/04/07 10:30:30;;;;;;;17.58;9.35;;;;;;;10.29;49.69;98105.06;5109130;28;20500;-70
2022/04/07 10:33:03;;;;;;;15.63;8.93;;;;;;;10.52;49.64;98105.63;5109591;28;20051;-72
2022/04/07 10:35:29;;;;;;;16.95;9.10;;;;;;;10.36;50.17;98089.22;5075395;28;20047;-69
2022/04/07 10:37:56;;;;;;;16.08;8.45;;;;;;;10.55;49.99;98107.09;5109347;28;20058;-69
2022/04/07 10:40:50;;;;;;;13.30;8.60;;;;;;;10.62;49.80;98105.31;5108844;28;20044;-73
2022/04/07 10:43:18;;;;;;;15.82;9.20;;;;;;;10.42;49.90;98085.78;5090322;28;20142;-75
2022/04/07 10:46:12;;;;;;;14.70;9.05;;;;;;;10.78;50.05;98111.09;5056267;28;20044;-76
2022/04/07 10:48:45;;;;;;;16.88;9.80;;;;;;;10.61;50.27;98096.50;5080897;28;20130;-75
2022/04/07 10:51:53;;;;;;;21.25;10.77;;;;;;;10.86;49.90;98096.84;5076762;28;20089;-73
2022/04/07 10:54:21;;;;;;;16.52;10.05;;;;;;;10.76;50.07;98096.41;5088697;28;20082;-73
2022/04/07 10:56:52;;;;;;;19.02;10.25;;;;;;;10.84;49.95;98109.50;5055454;28;20104;-73
2022/04/07 10:59:19;;;;;;;19.45;10.23;;;;;;;10.75;49.78;98087.59;5072376;28;20142;-75
2022/04/07 11:02:01;;;;;;;18.42;10.32;;;;;;;11.19;49.37;98090.63;5074695;28;20059;-72
2022/04/07 11:04:35;;;;;;;16.17;10.40;;;;;;;10.89;49.31;98006.97;5059856;28;20459;-73
2022/04/07 11:07:02;;;;;;;18.23;10.18;;;;;;;11.12;48.84;98065.06;5093694;28;20425;-73
2022/04/07 11:09:43;;;;;;;25.38;12.30;;;;;;;11.06;48.83;98015.41;5076496;28;20646;-74
2022/04/07 11:12:21;;;;;;;;;;;;;;;11.63;48.40;98088.34;5074142;28;20499;-74
2022/04/07 11:14:50;;;;;;;33.33;13.93;;;;;;;11.22;49.12;98069.00;5074924;28;19924;-74
2022/04/07 11:17:33;;;;;;;35.50;15.20;;;;;;;11.55;48.73;98074.38;5074632;28;20043;-74
2022/04/07 11:20:18;;;;;;;33.53;14.70;;;;;;;11.78;48.58;98059.72;5074843;28;20067;-74
2022/04/07 11:22:52;;;;;;;28.75;14.90;;;;;;;11.89;47.86;98071.59;5107958;28;20071;-73
2022/04/07 11:25:23;;;;;;;27.73;13.88;;;;;;;11.89;47.37;98031.69;5092144;28;20057;-73
2022/04/07 11:28:22;;;;;;;23.63;13.02;;;;;;;12.36;46.44;98057.25;5091588;28;20180;-73
2022/04/07 11:31:05;;;;;;;18.65;11.57;;;;;;;12.29;46.90;98051.94;5037286;28;20109;-73
2022/04/07 11:33:45;;;;;;;18.67;10.90;;;;;;;12.14;46.30;97973.34;5077087;28;20096;-75
2022/04/07 11:36:14;;;;;;;25.75;11.77;;;;;;;12.72;46.16;98050.38;5058679;28;20126;-75
2022/04/07 11:38:45;;;;;;;19.10;10.05;;;;;;;12.96;45.83;98041.69;5058615;28;20044;-76
2022/04/07 11:41:16;;;;;;;17.35;10.90;;;;;;;12.82;45.87;98036.63;5061424;28;20043;-75
2022/04/07 11:43:47;;;;;;;16.85;11.07;;;;;;;13.11;45.85;98038.78;5110651;28;20050;-76
2022/04/07 11:46:25;;;;;;;19.25;11.52;;;;;;;13.03;45.49;98049.69;5075439;28;20043;-76